Time;durP1;ratioP1;P1;durP2;ratioP2;P2;SDS_P1;SDS_P2;PMS_P1;PMS_P2;Temp;Humidity;BMP_temperature;BMP_pressure;BME280_temperature;BME280_humidity;BME280_pressure;Samples;Min_cycle;Max_cycle;Signal;HPM_P1;HPM_P2
2023/03/16 00:01:40;;;;;;;;;;;;;;;1.40;72.80;101653.63;4177414;28;20036;-64
2023/03/16 00:03:42;;;;;;;;;;;;;;;1.38;72.85;101650.19;4177840;28;20028;-64
2023/03/16 00:05:45;;;;;;;;;;;;;;;1.40;73.08;101658.94;4177501;28;20071;-63
2023/03/16 00:07:47;;;;;;;;;;;;;;;1.38;72.84;101655.53;4177217;28;20027;-64
2023/03/16 00:09:49;;;;;;;;;;;;;;;1.35;73.05;101658.38;4178253;28;19928;-63
2023/03/16 00:11:51;;;;;;;;;;;;;;;1.33;73.31;101660.25;4177067;28;20007;-64
2023/03/16 00:13:53;;;;;;;;;;;;;;;1.29;73.17;101655.25;4177524;28;20032;-64
2023/03/16 00:15:55;;;;;;;;;;;;;;;1.25;73.25;101662.53;4177651;28;20303;-64
2023/03/16 00:17:58;;;;;;;;;;;;;;;1.22;73.39;101654.75;4177453;28;20027;-63
2023/03/16 00:20:05;;;;;;;;;;;;;;;1.18;73.51;101659.41;4177531;28;20438;-62
2023/03/16 00:22:07;;;;;;;;;;;;;;;1.19;73.69;101662.91;4175386;28;20465;-64
2023/03/16 00:24:11;;;;;;;;;;;;;;;1.18;73.71;101664.72;4177409;28;20031;-64
2023/03/16 00:26:13;;;;;;;;;;;;;;;1.15;73.63;101664.91;4178215;28;20032;-64
2023/03/16 00:28:15;;;;;;;;;;;;;;;1.12;73.62;101664.25;4177575;28;20024;-63
2023/03/16 00:30:17;;;;;;;;;;;;;;;1.10;73.76;101663.47;4178612;28;20386;-64
2023/03/16 00:32:20;;;;;;;;;;;;;;;1.06;73.90;101663.66;4180195;28;20016;-63
2023/03/16 00:34:25;;;;;;;;;;;;;;;1.03;74.01;101663.84;4196817;28;20059;-64
2023/03/16 00:36:27;;;;;;;;;;;;;;;1.03;74.04;101673.63;4195454;28;20027;-64
2023/03/16 00:38:29;;;;;;;;;;;;;;;1.03;74.01;101673.63;4196277;28;20058;-64
2023/03/16 00:40:32;;;;;;;;;;;;;;;1.01;74.12;101668.41;4181150;28;20023;-63
2023/03/16 00:42:34;;;;;;;;;;;;;;;0.97;74.03;101674.00;4195357;28;20465;-63
2023/03/16 00:44:37;;;;;;;;;;;;;;;0.92;74.28;101674.28;4179627;28;19956;-63
2023/03/16 00:46:41;;;;;;;;;;;;;;;0.88;74.30;101678.94;4179772;28;20909;-64
2023/03/16 00:48:45;;;;;;;;;;;;;;;0.87;74.45;101679.00;4182048;28;20047;-64
2023/03/16 00:50:48;;;;;;;;;;;;;;;0.86;74.54;101677.28;4168855;28;20652;-63
2023/03/16 00:52:52;;;;;;;;;;;;;;;0.83;74.47;101678.34;4179311;28;20354;-63
2023/03/16 00:54:55;;;;;;;;;;;;;;;0.81;74.51;101684.69;4196149;28;20023;-63
2023/03/16 00:56:57;;;;;;;;;;;;;;;0.78;74.60;101680.41;4180601;28;20032;-63
2023/03/16 00:58:59;;;;;;;;;;;;;;;0.76;74.53;101678.81;4180813;28;20019;-64
2023/03/16 01:01:01;;;;;;;;;;;;;;;0.71;74.63;101684.38;4180318;28;20020;-64
2023/03/16 01:03:03;;;;;;;;;;;;;;;0.68;74.70;101680.09;4180043;28;20007;-64
2023/03/16 01:05:05;;;;;;;;;;;;;;;0.66;74.91;101686.47;4168197;28;20036;-64
2023/03/16 01:07:11;;;;;;;;;;;;;;;0.64;75.10;101686.56;4180263;28;20331;-63
2023/03/16 01:09:13;;;;;;;;;;;;;;;0.63;74.94;101676.84;4180742;28;20023;-64
2023/03/16 01:11:17;;;;;;;;;;;;;;;0.61;74.99;101684.06;4180948;28;20489;-64
2023/03/16 01:13:19;;;;;;;;;;;;;;;0.58;74.95;101681.59;4170985;28;20300;-63
2023/03/16 01:15:21;;;;;;;;;;;;;;;0.56;75.09;101680.81;4180579;28;20031;-64
2023/03/16 01:17:23;;;;;;;;;;;;;;;0.57;74.98;101679.88;4177896;28;20019;-64
2023/03/16 01:19:25;;;;;;;;;;;;;;;0.55;75.00;101687.09;4171454;28;20019;-62
2023/03/16 01:21:28;;;;;;;;;;;;;;;0.52;75.02;101690.78;4170101;28;20019;-64
2023/03/16 01:23:31;;;;;;;;;;;;;;;0.51;75.15;101688.19;4195095;28;20015;-62
2023/03/16 01:25:33;;;;;;;;;;;;;;;0.49;75.32;101682.97;4180025;28;20011;-65
2023/03/16 01:27:35;;;;;;;;;;;;;;;0.49;75.21;101684.78;4195576;28;20023;-64
2023/03/16 01:29:39;;;;;;;;;;;;;;;0.50;75.28;101678.50;4180220;28;20027;-63
2023/03/16 01:31:41;;;;;;;;;;;;;;;0.47;75.07;101687.53;4179527;28;20032;-63
2023/03/16 01:33:43;;;;;;;;;;;;;;;0.45;75.23;101685.91;4180165;28;20446;-63
2023/03/16 01:35:52;;;;;;;;;;;;;;;0.45;75.32;101680.56;4179424;28;20031;-64
2023/03/16 01:37:54;;;;;;;;;;;;;;;0.43;75.49;101683.31;4171147;28;20786;-64
2023/03/16 01:40:03;;;;;;;;;;;;;;;0.42;75.44;101683.41;4193544;28;20020;-64
2023/03/16 01:42:05;;;;;;;;;;;;;;;0.39;75.52;101678.28;4193913;28;20457;-63
2023/03/16 01:44:07;;;;;;;;;;;;;;;0.37;75.56;101685.47;4178354;28;20707;-64
2023/03/16 01:46:13;;;;;;;;;;;;;;;0.32;75.61;101688.41;4195887;28;20039;-65
2023/03/16 01:48:18;;;;;;;;;;;;;;;0.30;75.63;101691.16;4191923;28;20516;-64
2023/03/16 01:50:21;;;;;;;;;;;;;;;0.33;75.71;101692.78;4171366;28;20028;-65
2023/03/16 01:52:24;;;;;;;;;;;;;;;0.33;75.77;101687.47;4170234;28;19993;-64
2023/03/16 01:54:27;;;;;;;;;;;;;;;0.31;75.76;101692.88;4179238;28;20017;-64
2023/03/16 01:56:33;;;;;;;;;;;;;;;0.30;75.72;101693.81;4160582;28;20563;-65
2023/03/16 01:58:35;;;;;;;;;;;;;;;0.28;75.83;101692.16;4178200;28;20023;-64
2023/03/16 02:00:37;;;;;;;;;;;;;;;0.25;75.86;101687.91;4179356;28;20027;-64
2023/03/16 02:02:54;;;;;;;;;;;;;;;0.26;75.86;101694.06;4193840;28;20015;-65
2023/03/16 02:05:04;;;;;;;;;;;;;;;0.27;75.76;101690.47;4177799;28;20008;-65
2023/03/16 02:07:07;;;;;;;;;;;;;;;0.25;75.84;101684.38;4194657;28;20071;-65
2023/03/16 02:09:09;;;;;;;;;;;;;;;0.21;75.71;101681.03;4168118;28;20059;-62
2023/03/16 02:11:11;;;;;;;;;;;;;;;0.16;75.75;101680.44;4189407;28;20011;-65
2023/03/16 02:13:25;;;;;;;;;;;;;;;0.13;75.86;101680.63;4168688;28;20023;-64
2023/03/16 02:15:27;;;;;;;;;;;;;;;0.10;76.21;101684.28;4186821;28;20381;-64
2023/03/16 02:17:29;;;;;;;;;;;;;;;0.10;76.16;101681.63;4166456;28;20023;-61
2023/03/16 02:19:37;;;;;;;;;;;;;;;0.15;76.43;101681.38;4170196;28;20024;-64
2023/03/16 02:21:41;;;;;;;;;;;;;;;0.18;76.24;101681.22;4186005;28;20063;-62
2023/03/16 02:23:43;;;;;;;;;;;;;;;0.18;76.10;101674.09;4169774;28;20047;-64
2023/03/16 02:25:47;;;;;;;;;;;;;;;0.20;75.95;101670.50;4187399;28;20419;-64
2023/03/16 02:27:51;;;;;;;;;;;;;;;0.16;75.75;101678.63;4172423;28;20099;-63
2023/03/16 02:30:00;;;;;;;;;;;;;;;0.12;75.80;101679.75;4166510;28;20016;-64
2023/03/16 02:32:04;;;;;;;;;;;;;;;0.09;76.08;101676.41;4169337;28;20032;-64
2023/03/16 02:34:09;;;;;;;;;;;;;;;0.09;76.03;101679.91;4169870;28;19929;-64
2023/03/16 02:36:14;;;;;;;;;;;;;;;0.08;76.03;101677.34;4173827;28;19992;-64
2023/03/16 02:38:16;;;;;;;;;;;;;;;0.06;76.12;101676.59;4171385;28;20016;-65
2023/03/16 02:40:24;;;;;;;;;;;;;;;0.01;76.13;101676.00;4178807;28;20023;-64
2023/03/16 02:42:29;;;;;;;;;;;;;;;-0.02;76.21;101682.31;4192516;28;20008;-64
2023/03/16 02:44:35;;;;;;;;;;;;;;;-0.03;76.20;101677.97;4177083;28;20019;-64
2023/03/16 02:46:42;;;;;;;;;;;;;;;-0.02;76.14;101687.63;4170179;28;20467;-64
2023/03/16 02:48:44;;;;;;;;;;;;;;;-0.04;76.18;101677.09;4193952;28;20375;-63
2023/03/16 02:50:47;;;;;;;;;;;;;;;-0.04;76.09;101682.41;4179182;28;20037;-65
2023/03/16 02:52:49;;;;;;;;;;;;;;;-0.09;76.12;101687.13;4164690;28;20047;-64
2023/03/16 02:54:51;;;;;;;;;;;;;;;-0.12;76.22;101679.31;4193643;28;19971;-64
2023/03/16 02:56:53;;;;;;;;;;;;;;;-0.12;76.24;101684.63;4193002;28;20011;-64
2023/03/16 02:58:57;;;;;;;;;;;;;;;-0.11;76.28;101685.47;4184939;28;20019;-64
2023/03/16 03:01:00;;;;;;;;;;;;;;;-0.11;76.19;101681.06;4171084;28;20015;-65
2023/03/16 03:03:03;;;;;;;;;;;;;;;-0.11;76.24;101682.81;4193527;28;20011;-64
2023/03/16 03:05:07;;;;;;;;;;;;;;;-0.14;76.40;101688.31;4177346;28;20055;-63
2023/03/16 03:07:09;;;;;;;;;;;;;;;-0.13;76.39;101698.84;4193483;28;20023;-65
2023/03/16 03:09:28;;;;;;;;;;;;;;;-0.11;76.30;101701.41;4194028;28;20023;-65
2023/03/16 03:11:30;;;;;;;;;;;;;;;-0.16;76.30;101701.66;4193823;28;20019;-64
2023/03/16 03:13:32;;;;;;;;;;;;;;;-0.19;76.27;101696.53;4192964;28;20015;-64
2023/03/16 03:15:35;;;;;;;;;;;;;;;-0.20;76.35;101697.47;4175571;28;19935;-64
2023/03/16 03:17:43;;;;;;;;;;;;;;;-0.21;76.41;101707.22;4176382;28;20352;-64
2023/03/16 03:19:46;;;;;;;;;;;;;;;-0.19;76.44;101712.44;4171182;28;20524;-63
2023/03/16 03:21:49;;;;;;;;;;;;;;;-0.20;76.38;101710.75;4192594;28;20015;-64
2023/03/16 03:23:52;;;;;;;;;;;;;;;-0.23;76.49;101709.13;4177895;28;20011;-63
2023/03/16 03:25:56;;;;;;;;;;;;;;;-0.22;76.49;101715.28;4167362;28;20470;-64
2023/03/16 03:27:59;;;;;;;;;;;;;;;-0.24;76.67;101709.19;4193216;28;20015;-64
2023/03/16 03:30:01;;;;;;;;;;;;;;;-0.24;76.69;101703.88;4163318;28;20019;-62
2023/03/16 03:32:04;;;;;;;;;;;;;;;-0.23;76.56;101714.44;4169388;28;19962;-62
2023/03/16 03:34:06;;;;;;;;;;;;;;;-0.22;76.48;101709.97;4166563;28;20020;-64
2023/03/16 03:36:12;;;;;;;;;;;;;;;-0.24;76.43;101707.38;4178840;28;20528;-63
2023/03/16 03:38:15;;;;;;;;;;;;;;;-0.28;76.50;101713.81;4177074;28;20668;-64
2023/03/16 03:40:20;;;;;;;;;;;;;;;-0.28;76.62;101715.59;4177915;28;20834;-64
2023/03/16 03:42:26;;;;;;;;;;;;;;;-0.28;76.73;101708.53;4193704;28;20638;-64
2023/03/16 03:44:28;;;;;;;;;;;;;;;-0.27;76.65;101722.63;4177206;28;20036;-63
2023/03/16 03:46:30;;;;;;;;;;;;;;;-0.30;76.72;101712.19;4169357;28;20037;-63
2023/03/16 03:48:33;;;;;;;;;;;;;;;-0.30;76.83;101714.84;4178401;28;20734;-63
2023/03/16 03:50:37;;;;;;;;;;;;;;;-0.28;76.67;101718.25;4177645;28;20012;-64
2023/03/16 03:53:00;;;;;;;;;;;;;;;-0.29;76.67;101711.25;4177964;28;20372;-64
2023/03/16 03:55:05;;;;;;;;;;;;;;;-0.30;76.63;101720.16;4176821;28;20023;-63
2023/03/16 03:57:07;;;;;;;;;;;;;;;-0.30;76.58;101715.69;4159363;28;19925;-64
2023/03/16 03:59:09;;;;;;;;;;;;;;;-0.29;76.63;101708.59;4176907;28;20092;-64
2023/03/16 04:01:31;;;;;;;;;;;;;;;-0.28;76.51;101712.94;4177947;28;20024;-61
2023/03/16 04:03:33;;;;;;;;;;;;;;;-0.29;76.54;101709.44;4192515;28;20485;-64
2023/03/16 04:05:36;;;;;;;;;;;;;;;-0.32;76.47;101714.91;4170291;28;20027;-64
2023/03/16 04:07:38;;;;;;;;;;;;;;;-0.34;76.50;101716.81;4174476;28;20016;-64
2023/03/16 04:09:44;;;;;;;;;;;;;;;-0.38;76.52;101716.13;4193659;28;20019;-63
2023/03/16 04:11:56;;;;;;;;;;;;;;;-0.38;76.56;101713.47;4191398;28;20019;-64
2023/03/16 04:13:59;;;;;;;;;;;;;;;-0.40;76.44;101715.31;4193061;28;20039;-63
2023/03/16 04:16:01;;;;;;;;;;;;;;;-0.40;76.62;101717.97;4177644;28;20017;-65
2023/03/16 04:18:08;;;;;;;;;;;;;;;-0.43;76.54;101720.81;4191928;28;19932;-64
2023/03/16 04:20:14;;;;;;;;;;;;;;;-0.43;76.54;101712.00;4191960;28;20015;-64
2023/03/16 04:22:22;;;;;;;;;;;;;;;-0.44;76.61;101712.91;4175996;28;20096;-63
2023/03/16 04:24:24;;;;;;;;;;;;;;;-0.44;76.63;101712.91;4175967;28;20031;-64
2023/03/16 04:26:27;;;;;;;;;;;;;;;-0.44;76.57;101720.88;4171746;28;20051;-64
2023/03/16 04:28:29;;;;;;;;;;;;;;;-0.46;76.61;101713.00;4173076;28;20513;-64
2023/03/16 04:30:33;;;;;;;;;;;;;;;-0.47;76.43;101721.03;4192085;28;20015;-63
2023/03/16 04:32:52;;;;;;;;;;;;;;;-0.46;76.63;101723.63;4191667;28;20024;-65
2023/03/16 04:34:56;;;;;;;;;;;;;;;-0.48;76.55;101722.84;4168504;28;20023;-65
2023/03/16 04:37:06;;;;;;;;;;;;;;;-0.48;76.44;101722.84;4167166;28;20036;-65
2023/03/16 04:39:11;;;;;;;;;;;;;;;-0.50;76.45;101724.75;4192231;28;20450;-65
2023/03/16 04:41:13;;;;;;;;;;;;;;;-0.51;76.51;101723.00;4175761;28;20397;-63
2023/03/16 04:43:25;;;;;;;;;;;;;;;-0.51;76.68;101722.16;4174953;28;20008;-64
2023/03/16 04:45:32;;;;;;;;;;;;;;;-0.49;76.68;101730.91;4191716;28;20414;-64
2023/03/16 04:47:36;;;;;;;;;;;;;;;-0.47;76.66;101726.34;4192567;28;20363;-64
2023/03/16 04:49:38;;;;;;;;;;;;;;;-0.46;76.48;101731.56;4193514;28;20067;-64
2023/03/16 04:51:41;;;;;;;;;;;;;;;-0.47;76.41;101729.88;4190981;28;20004;-64
2023/03/16 04:53:46;;;;;;;;;;;;;;;-0.50;76.24;101727.41;4167365;28;20013;-63
2023/03/16 04:55:58;;;;;;;;;;;;;;;-0.52;76.41;101731.91;4189805;28;20027;-64
2023/03/16 04:58:00;;;;;;;;;;;;;;;-0.50;76.59;101724.75;4175078;28;20008;-64
2023/03/16 05:00:14;;;;;;;;;;;;;;;-0.48;76.52;101724.66;4168611;28;20514;-64
2023/03/16 05:02:23;;;;;;;;;;;;;;;-0.46;76.59;101730.72;4166881;28;20027;-64
2023/03/16 05:04:25;;;;;;;;;;;;;;;-0.44;76.55;101735.03;4191100;28;20469;-63
2023/03/16 05:06:27;;;;;;;;;;;;;;;-0.41;76.35;101731.34;4174806;28;20032;-64
2023/03/16 05:08:31;;;;;;;;;;;;;;;-0.38;76.11;101732.06;4159428;28;20462;-63
2023/03/16 05:10:33;;;;;;;;;;;;;;;-0.40;75.95;101738.38;4192252;28;20019;-63
2023/03/16 05:12:35;;;;;;;;;;;;;;;-0.40;75.95;101741.03;4167130;28;20028;-64
2023/03/16 05:14:40;;;;;;;;;;;;;;;-0.44;75.99;101739.47;4175959;28;20024;-64
2023/03/16 05:17:04;;;;;;;;;;;;;;;-0.46;76.09;101736.88;4187056;28;20438;-65
2023/03/16 05:19:06;;;;;;;;;;;;;;;-0.47;75.92;101736.97;4171713;28;20040;-64
2023/03/16 05:21:11;;;;;;;;;;;;;;;-0.50;76.01;101732.69;4179028;28;19924;-63
2023/03/16 05:23:32;;;;;;;;;;;;;;;-0.55;76.20;101740.91;4177215;28;21318;-64
2023/03/16 05:25:39;;;;;;;;;;;;;;;-0.56;76.35;101733.03;4178002;28;20013;-64
2023/03/16 05:27:43;;;;;;;;;;;;;;;-0.57;76.36;101736.59;4195567;28;20015;-63
2023/03/16 05:29:47;;;;;;;;;;;;;;;-0.56;76.46;101747.13;4179390;28;20015;-64
2023/03/16 05:31:49;;;;;;;;;;;;;;;-0.54;76.41;101741.75;4171452;28;20362;-62
2023/03/16 05:33:56;;;;;;;;;;;;;;;-0.55;76.21;101743.56;4171056;28;20075;-64
2023/03/16 05:35:58;;;;;;;;;;;;;;;-0.56;76.27;101743.63;4169916;28;20015;-64
2023/03/16 05:38:01;;;;;;;;;;;;;;;-0.68;76.14;101731.84;4194741;28;20011;-64
2023/03/16 05:40:10;;;;;;;;;;;;;;;-0.62;76.54;101750.09;4195024;28;20036;-63
2023/03/16 05:42:12;;;;;;;;;;;;;;;-0.65;76.51;101746.75;4180050;28;19928;-64
2023/03/16 05:44:24;;;;;;;;;;;;;;;-0.69;76.64;101745.19;4171451;28;20048;-64
2023/03/16 05:46:49;;;;;;;;;;;;;;;-0.71;76.58;101744.44;4177354;28;20007;-63
2023/03/16 05:48:52;;;;;;;;;;;;;;;-0.71;77.05;101752.38;4179086;28;20020;-64
2023/03/16 05:50:57;;;;;;;;;;;;;;;-0.71;76.88;101749.72;4170763;28;20031;-63
2023/03/16 05:53:03;;;;;;;;;;;;;;;-0.72;76.91;101759.50;4169877;28;20023;-64
2023/03/16 05:55:06;;;;;;;;;;;;;;;-0.75;76.93;101755.19;4192946;28;20015;-61
2023/03/16 05:57:08;;;;;;;;;;;;;;;-0.75;77.12;101765.81;4176857;28;20020;-64
2023/03/16 05:59:11;;;;;;;;;;;;;;;-0.77;77.21;101759.72;4174173;28;20023;-63
2023/03/16 06:01:14;;;;;;;;;;;;;;;-0.73;77.44;101765.72;4187021;28;20024;-64
2023/03/16 06:03:18;;;;;;;;;;;;;;;-0.75;77.29;101765.81;4171504;28;20426;-64
2023/03/16 06:05:21;;;;;;;;;;;;;;;-0.77;77.52;101770.34;4170709;28;20032;-64
2023/03/16 06:07:27;;;;;;;;;;;;;;;-0.77;77.63;101759.72;4170130;28;20489;-64
2023/03/16 06:09:30;;;;;;;;;;;;;;;-0.74;77.67;101764.88;4178129;28;20016;-64
2023/03/16 06:11:32;;;;;;;;;;;;;;;-0.74;77.43;101762.22;4170913;28;20020;-64
2023/03/16 06:13:35;;;;;;;;;;;;;;;-0.72;77.74;101764.81;4194285;28;20501;-64
2023/03/16 06:15:37;;;;;;;;;;;;;;;-0.70;77.66;101760.28;4179837;28;20066;-64
2023/03/16 06:17:40;;;;;;;;;;;;;;;-0.68;77.81;101768.16;4167823;28;20024;-64
2023/03/16 06:19:42;;;;;;;;;;;;;;;-0.66;77.75;101769.78;4195022;28;20019;-63
2023/03/16 06:21:44;;;;;;;;;;;;;;;-0.61;77.81;101773.06;4177774;28;19968;-62
2023/03/16 06:23:49;;;;;;;;;;;;;;;-0.58;77.90;101770.25;4176458;28;19929;-64
2023/03/16 06:25:53;;;;;;;;;;;;;;;-0.57;77.84;101774.59;4176438;28;20023;-63
2023/03/16 06:27:57;;;;;;;;;;;;;;;-0.54;77.87;101770.94;4171044;28;20023;-63
2023/03/16 06:30:00;;;;;;;;;;;;;;;-0.51;77.93;101775.25;4171095;28;20016;-64
2023/03/16 06:32:02;;;;;;;;;;;;;;;-0.47;77.87;101780.31;4177156;28;19960;-64
2023/03/16 06:34:04;;;;;;;;;;;;;;;-0.42;77.72;101788.03;4171579;28;20235;-63
2023/03/16 06:36:07;;;;;;;;;;;;;;;-0.40;77.83;101791.47;4176169;28;20562;-64
2023/03/16 06:38:14;;;;;;;;;;;;;;;-0.35;77.74;101791.22;4175165;28;20028;-64
2023/03/16 06:40:37;;;;;;;;;;;;;;;-0.33;77.48;101792.00;4171560;28;20019;-65
2023/03/16 06:42:40;;;;;;;;;;;;;;;-0.30;77.50;101794.47;4168508;28;20020;-64
2023/03/16 06:44:46;;;;;;;;;;;;;;;-0.26;77.38;101798.69;4168289;28;20409;-64
2023/03/16 06:46:48;;;;;;;;;;;;;;;-0.23;77.26;101803.84;4193596;28;20012;-64
2023/03/16 06:48:51;;;;;;;;;;;;;;;-0.19;77.34;101803.59;4192558;28;20032;-64
2023/03/16 06:50:54;;;;;;;;;;;;;;;-0.14;77.24;101799.84;4193823;28;20023;-64
2023/03/16 06:52:59;;;;;;;;;;;;;;;-0.10;77.08;101801.41;4177103;28;20007;-63
2023/03/16 06:55:06;;;;;;;;;;;;;;;-0.07;76.83;101809.19;4176022;28;20019;-63
2023/03/16 06:57:12;;;;;;;;;;;;;;;-0.05;76.51;101815.28;4176313;28;20012;-64
2023/03/16 06:59:14;;;;;;;;;;;;;;;0.02;76.79;101816.69;4176101;28;20011;-64
2023/03/16 07:01:16;;;;;;;;;;;;;;;0.06;76.82;101818.22;4177609;28;20023;-64
2023/03/16 07:03:18;;;;;;;;;;;;;;;0.10;76.49;101822.44;4193453;28;20362;-64
2023/03/16 07:05:26;;;;;;;;;;;;;;;0.15;76.43;101823.03;4177620;28;19932;-64
2023/03/16 07:07:28;;;;;;;;;;;;;;;0.19;76.11;101829.06;4177067;28;20307;-64
2023/03/16 07:09:31;;;;;;;;;;;;;;;0.24;76.02;101827.00;4169129;28;20067;-64
2023/03/16 07:11:33;;;;;;;;;;;;;;;0.30;76.19;101823.16;4192611;28;20462;-64
2023/03/16 07:13:36;;;;;;;;;;;;;;;0.35;75.93;101831.75;4176233;28;20019;-62
2023/03/16 07:15:38;;;;;;;;;;;;;;;0.42;75.80;101830.44;4171111;28;20038;-64
2023/03/16 07:17:41;;;;;;;;;;;;;;;0.48;75.47;101832.75;4193069;28;20011;-64
2023/03/16 07:19:44;;;;;;;;;;;;;;;0.55;75.37;101846.59;4175288;28;20031;-65
2023/03/16 07:21:48;;;;;;;;;;;;;;;0.60;75.16;101847.19;4176374;28;20126;-64
2023/03/16 07:23:54;;;;;;;;;;;;;;;0.62;74.72;101833.81;4177628;28;20036;-65
2023/03/16 07:26:06;;;;;;;;;;;;;;;0.67;74.67;101837.91;4175996;28;20216;-65
2023/03/16 07:28:10;;;;;;;;;;;;;;;0.75;74.55;101844.59;4177229;28;20015;-64
2023/03/16 07:30:17;;;;;;;;;;;;;;;0.79;74.17;101843.50;4169705;28;20358;-64
2023/03/16 07:32:21;;;;;;;;;;;;;;;0.84;74.00;101839.63;4180817;28;20059;-64
2023/03/16 07:34:23;;;;;;;;;;;;;;;0.89;73.89;101837.59;4169844;28;20474;-63
2023/03/16 07:36:30;;;;;;;;;;;;;;;0.97;74.05;101841.59;4170526;28;20011;-64
2023/03/16 07:38:35;;;;;;;;;;;;;;;1.03;73.87;101847.41;4164431;28;20043;-64
2023/03/16 07:40:38;;;;;;;;;;;;;;;1.07;73.26;101843.63;4155153;28;19933;-64
2023/03/16 07:42:46;;;;;;;;;;;;;;;1.14;73.10;101851.28;4154826;28;19939;-65
2023/03/16 07:44:50;;;;;;;;;;;;;;;1.21;72.86;101856.16;4168977;28;20027;-64
2023/03/16 07:46:55;;;;;;;;;;;;;;;1.30;72.43;101853.91;4166459;28;20032;-64
2023/03/16 07:49:00;;;;;;;;;;;;;;;1.35;72.05;101846.50;4176325;28;20423;-64
2023/03/16 07:51:02;;;;;;;;;;;;;;;1.41;71.74;101848.78;4170371;28;20044;-65
2023/03/16 07:53:05;;;;;;;;;;;;;;;1.47;71.65;101847.59;4176193;28;20007;-64
2023/03/16 07:55:11;;;;;;;;;;;;;;;1.53;71.34;101844.56;4169916;28;20028;-64
2023/03/16 07:57:13;;;;;;;;;;;;;;;1.60;70.98;101851.25;4192588;28;20584;-63
2023/03/16 07:59:19;;;;;;;;;;;;;;;1.67;70.84;101847.25;4169441;28;20035;-63
2023/03/16 08:01:22;;;;;;;;;;;;;;;1.73;70.91;101849.56;4177419;28;20024;-64
2023/03/16 08:03:26;;;;;;;;;;;;;;;1.80;70.60;101855.34;4175642;28;20015;-63
2023/03/16 08:05:31;;;;;;;;;;;;;;;1.88;69.93;101860.22;4168987;28;20044;-64
2023/03/16 08:07:35;;;;;;;;;;;;;;;1.94;69.66;101860.72;4193060;28;20502;-63
2023/03/16 08:09:45;;;;;;;;;;;;;;;2.02;69.18;101862.06;4177200;28;20012;-63
2023/03/16 08:11:51;;;;;;;;;;;;;;;2.07;68.91;101862.63;4192175;28;20031;-63
2023/03/16 08:13:55;;;;;;;;;;;;;;;2.13;68.61;101862.25;4169279;28;20032;-64
2023/03/16 08:16:00;;;;;;;;;;;;;;;2.17;68.78;101859.28;4177219;28;20036;-64
2023/03/16 08:18:09;;;;;;;;;;;;;;;2.28;68.56;101863.13;4168609;28;20020;-63
2023/03/16 08:20:14;;;;;;;;;;;;;;;2.34;68.33;101857.41;4193740;28;20465;-64
2023/03/16 08:22:17;;;;;;;;;;;;;;;2.41;68.53;101853.38;4177418;28;20422;-64
2023/03/16 08:24:22;;;;;;;;;;;;;;;2.47;68.22;101853.00;4176597;28;20673;-64
2023/03/16 08:26:25;;;;;;;;;;;;;;;2.52;67.73;101856.25;4176752;28;20119;-65
2023/03/16 08:28:31;;;;;;;;;;;;;;;2.60;67.59;101854.88;4176518;28;20368;-64
2023/03/16 08:30:35;;;;;;;;;;;;;;;2.66;67.40;101859.81;4176550;28;20028;-64
2023/03/16 08:33:18;;;;;;;;;;;;;;;2.77;67.48;101851.97;4168589;28;20444;-64
2023/03/16 08:35:22;;;;;;;;;;;;;;;2.85;67.50;101862.16;4176985;28;20023;-67
2023/03/16 08:37:23;;;;;;;;;;;;;;;2.97;67.01;101865.88;4177036;28;20008;-64
2023/03/16 08:39:28;;;;;;;;;;;;;;;3.05;66.76;101859.06;4176605;28;20487;-64
2023/03/16 08:41:31;;;;;;;;;;;;;;;3.13;66.82;101861.22;4177459;28;20397;-65
2023/03/16 08:43:37;;;;;;;;;;;;;;;3.23;66.83;101867.69;4176648;28;20011;-64
2023/03/16 08:45:41;;;;;;;;;;;;;;;3.34;66.69;101874.97;4193144;28;20019;-64
2023/03/16 08:47:43;;;;;;;;;;;;;;;3.43;66.71;101866.34;4176974;28;20000;-64
2023/03/16 08:49:48;;;;;;;;;;;;;;;3.54;66.19;101862.97;4176685;28;19929;-65
2023/03/16 08:51:53;;;;;;;;;;;;;;;3.65;65.91;101867.56;4166964;28;20474;-63
2023/03/16 08:53:55;;;;;;;;;;;;;;;3.76;65.54;101874.84;4181057;28;20015;-64
2023/03/16 08:56:02;;;;;;;;;;;;;;;3.82;65.51;101866.41;4196272;28;20015;-64
2023/03/16 08:58:04;;;;;;;;;;;;;;;3.95;65.27;101875.31;4180776;28;20016;-64
2023/03/16 09:00:13;;;;;;;;;;;;;;;4.07;64.79;101880.75;4181266;28;20027;-64
2023/03/16 09:02:16;;;;;;;;;;;;;;;4.18;64.65;101872.00;4179944;28;20008;-64
2023/03/16 09:04:20;;;;;;;;;;;;;;;4.29;64.03;101882.78;4180468;28;20386;-64
2023/03/16 09:06:22;;;;;;;;;;;;;;;4.40;63.74;101879.34;4179879;28;20024;-63
2023/03/16 09:08:25;;;;;;;;;;;;;;;4.49;63.52;101879.53;4179302;28;20027;-64
2023/03/16 09:10:27;;;;;;;;;;;;;;;4.62;63.06;101882.19;4180190;28;20341;-64
2023/03/16 09:12:29;;;;;;;;;;;;;;;4.71;62.91;101880.69;4179500;28;20064;-62
2023/03/16 09:14:31;;;;;;;;;;;;;;;4.81;62.18;101873.72;4177931;28;20048;-63
2023/03/16 09:16:34;;;;;;;;;;;;;;;4.94;61.44;101873.66;4177391;28;19995;-64
2023/03/16 09:18:36;;;;;;;;;;;;;;;5.12;61.30;101892.03;4179592;28;20044;-64
2023/03/16 09:20:38;;;;;;;;;;;;;;;5.24;60.84;101889.28;4179959;28;20028;-63
2023/03/16 09:22:40;;;;;;;;;;;;;;;5.37;60.37;101905.28;4179684;28;20371;-63
2023/03/16 09:24:43;;;;;;;;;;;;;;;5.48;60.23;101891.09;4178090;28;20379;-64
2023/03/16 09:26:45;;;;;;;;;;;;;;;5.63;60.04;101894.44;4180396;28;20011;-64
2023/03/16 09:28:48;;;;;;;;;;;;;;;5.74;59.42;101893.63;4180818;28;20054;-64
2023/03/16 09:30:50;;;;;;;;;;;;;;;5.84;58.94;101886.59;4180916;28;20445;-65
2023/03/16 09:32:52;;;;;;;;;;;;;;;5.99;58.94;101881.03;4179364;28;20011;-64
2023/03/16 09:34:54;;;;;;;;;;;;;;;6.13;58.87;101888.88;4180368;28;20438;-63
2023/03/16 09:36:55;;;;;;;;;;;;;;;6.31;58.37;101890.09;4179229;28;20366;-64
2023/03/16 09:38:57;;;;;;;;;;;;;;;6.44;57.37;101883.75;4180885;28;20011;-65
2023/03/16 09:41:02;;;;;;;;;;;;;;;6.57;57.30;101899.78;4179882;28;20016;-64
2023/03/16 09:43:18;;;;;;;;;;;;;;;6.68;56.23;101884.50;4179594;28;20458;-63
2023/03/16 09:45:23;;;;;;;;;;;;;;;6.81;56.50;101887.03;4180349;28;20019;-63
2023/03/16 09:47:26;;;;;;;;;;;;;;;6.95;55.91;101895.81;4179525;28;20015;-64
2023/03/16 09:49:29;;;;;;;;;;;;;;;7.08;55.46;101885.75;4180885;28;20019;-63
2023/03/16 09:51:39;;;;;;;;;;;;;;;7.15;54.89;101889.66;4179743;28;20015;-62
2023/03/16 09:53:40;;;;;;;;;;;;;;;7.21;54.77;101891.00;4179018;28;20011;-63
2023/03/16 09:58:21;;;;;;;;;;;;;;;7.27;53.95;101898.53;4179737;28;20004;-63
2023/03/16 10:00:44;;;;;;;;;;;;;;;7.31;53.69;101891.94;4180210;28;20016;-64
2023/03/16 10:03:12;;;;;;;;;;;;;;;7.35;53.55;101895.19;4178723;28;20020;-64
2023/03/16 10:05:15;;;;;;;;;;;;;;;7.44;53.30;101893.59;4177744;28;20019;-64
2023/03/16 10:07:23;;;;;;;;;;;;;;;7.42;53.36;101885.66;4178855;28;20012;-64
2023/03/16 10:09:28;;;;;;;;;;;;;;;7.45;52.90;101885.41;4178482;28;20028;-64
2023/03/16 10:11:31;;;;;;;;;;;;;;;7.39;52.85;101889.44;4178414;28;20047;-64
2023/03/16 10:13:36;;;;;;;;;;;;;;;7.37;52.58;101898.63;4177378;28;20043;-64
2023/03/16 10:15:38;;;;;;;;;;;;;;;7.30;52.49;101890.22;4179054;28;20019;-64
2023/03/16 10:17:42;;;;;;;;;;;;;;;7.20;52.98;101883.91;4176868;28;20522;-63
2023/03/16 10:19:46;;;;;;;;;;;;;;;7.14;52.98;101893.31;4178379;28;20467;-63
2023/03/16 10:21:51;;;;;;;;;;;;;;;7.10;51.94;101893.69;4177311;28;20011;-64
2023/03/16 10:23:53;;;;;;;;;;;;;;;7.00;52.53;101880.16;4178605;28;20023;-64
2023/03/16 10:25:56;;;;;;;;;;;;;;;6.95;52.08;101877.00;4177219;28;20012;-65
2023/03/16 10:27:58;;;;;;;;;;;;;;;6.92;53.15;101878.09;4177265;28;20016;-62
2023/03/16 10:30:01;;;;;;;;;;;;;;;6.95;53.40;101874.34;4178162;28;20011;-64
2023/03/16 10:32:08;;;;;;;;;;;;;;;6.97;53.32;101880.41;4178413;28;20417;-64
2023/03/16 10:34:12;;;;;;;;;;;;;;;7.06;53.34;101885.03;4179673;28;20016;-62
2023/03/16 10:36:15;;;;;;;;;;;;;;;7.12;52.82;101881.84;4179382;28;20023;-63
2023/03/16 10:38:28;;;;;;;;;;;;;;;7.21;52.94;101877.56;4178905;28;20020;-64
2023/03/16 10:40:31;;;;;;;;;;;;;;;7.32;52.40;101880.22;4179403;28;20011;-64
2023/03/16 10:42:35;;;;;;;;;;;;;;;7.43;52.59;101865.00;4178540;28;20020;-64
2023/03/16 10:44:39;;;;;;;;;;;;;;;7.52;52.54;101869.59;4179381;28;20021;-64
2023/03/16 10:46:43;;;;;;;;;;;;;;;7.64;52.30;101867.72;4178844;28;20091;-65
2023/03/16 10:48:51;;;;;;;;;;;;;;;7.78;51.93;101875.47;4179678;28;20019;-65